sensor_id;sensor_type;location;lat;lon;timestamp;pressure;altitude;pressure_sealevel;temperature;humidity
55550;BME280;41397;49.972;18.944;2022-10-16T00:02:21;102057.99;;;16.46;71.76
55550;BME280;41397;49.972;18.944;2022-10-16T00:05:22;102072.78;;;16.45;71.72
55550;BME280;41397;49.972;18.944;2022-10-16T00:08:25;102073.59;;;16.35;72.66
55550;BME280;41397;49.972;18.944;2022-10-16T00:11:31;102072.09;;;16.31;72.67
55550;BME280;41397;49.972;18.944;2022-10-16T00:14:37;102078.63;;;16.30;72.52
55550;BME280;41397;49.972;18.944;2022-10-16T00:17:43;102082.52;;;16.28;72.75
55550;BME280;41397;49.972;18.944;2022-10-16T00:20:44;102083.66;;;16.25;73.04
55550;BME280;41397;49.972;18.944;2022-10-16T00:23:53;102083.05;;;16.22;73.19
55550;BME280;41397;49.972;18.944;2022-10-16T00:26:54;102087.71;;;16.21;73.00
55550;BME280;41397;49.972;18.944;2022-10-16T00:29:56;102088.84;;;16.18;73.32
55550;BME280;41397;49.972;18.944;2022-10-16T00:32:57;102091.72;;;16.17;73.23
55550;BME280;41397;49.972;18.944;2022-10-16T00:36:00;102092.86;;;16.14;73.53
55550;BME280;41397;49.972;18.944;2022-10-16T00:39:02;102102.15;;;16.13;73.63
55550;BME280;41397;49.972;18.944;2022-10-16T00:42:04;102091.38;;;16.10;73.44
55550;BME280;41397;49.972;18.944;2022-10-16T00:45:07;102096.41;;;16.05;73.82
55550;BME280;41397;49.972;18.944;2022-10-16T00:48:12;102104.20;;;16.00;74.04
55550;BME280;41397;49.972;18.944;2022-10-16T00:51:15;102098.07;;;15.96;74.19
55550;BME280;41397;49.972;18.944;2022-10-16T00:54:20;102090.92;;;15.94;74.32
55550;BME280;41397;49.972;18.944;2022-10-16T00:57:23;102096.55;;;15.92;74.68
55550;BME280;41397;49.972;18.944;2022-10-16T01:00:26;102092.92;;;15.92;74.55
55550;BME280;41397;49.972;18.944;2022-10-16T01:03:33;102100.18;;;15.93;74.67
55550;BME280;41397;49.972;18.944;2022-10-16T01:06:43;102094.05;;;15.89;75.00
55550;BME280;41397;49.972;18.944;2022-10-16T01:13:10;102105.45;;;15.85;74.57
55550;BME280;41397;49.972;18.944;2022-10-16T01:19:36;102099.71;;;15.88;75.09
55550;BME280;41397;49.972;18.944;2022-10-16T01:22:43;102096.05;;;15.87;75.02
55550;BME280;41397;49.972;18.944;2022-10-16T01:25:59;102097.07;;;15.86;75.15
55550;BME280;41397;49.972;18.944;2022-10-16T01:35:44;102096.32;;;15.84;75.34
55550;BME280;41397;49.972;18.944;2022-10-16T01:38:50;102098.46;;;15.81;75.50
55550;BME280;41397;49.972;18.944;2022-10-16T01:42:01;102091.20;;;15.80;75.56
55550;BME280;41397;49.972;18.944;2022-10-16T01:45:04;102087.30;;;15.71;76.12
55550;BME280;41397;49.972;18.944;2022-10-16T01:48:12;102103.85;;;15.71;76.31
55550;BME280;41397;49.972;18.944;2022-10-16T01:51:16;102095.47;;;15.72;76.12
55550;BME280;41397;49.972;18.944;2022-10-16T01:54:20;102096.22;;;15.74;76.00
55550;BME280;41397;49.972;18.944;2022-10-16T01:57:24;102105.36;;;15.75;76.12
55550;BME280;41397;49.972;18.944;2022-10-16T02:00:29;102086.93;;;15.75;75.95
55550;BME280;41397;49.972;18.944;2022-10-16T02:03:33;102095.20;;;15.75;75.84
55550;BME280;41397;49.972;18.944;2022-10-16T02:06:38;102095.32;;;15.74;75.93
55550;BME280;41397;49.972;18.944;2022-10-16T02:09:39;102099.85;;;15.75;75.76
55550;BME280;41397;49.972;18.944;2022-10-16T02:12:45;102105.36;;;15.75;75.77
55550;BME280;41397;49.972;18.944;2022-10-16T02:15:49;102116.51;;;15.73;75.60
55550;BME280;41397;49.972;18.944;2022-10-16T02:18:50;102121.16;;;15.73;75.82
55550;BME280;41397;49.972;18.944;2022-10-16T02:21:56;102124.79;;;15.73;75.90
55550;BME280;41397;49.972;18.944;2022-10-16T02:25:25;102129.58;;;15.71;75.73
55550;BME280;41397;49.972;18.944;2022-10-16T02:28:18;102128.03;;;15.67;75.86
55550;BME280;41397;49.972;18.944;2022-10-16T02:31:26;102141.81;;;15.67;75.68
55550;BME280;41397;49.972;18.944;2022-10-16T02:34:31;102139.06;;;15.67;75.92
55550;BME280;41397;49.972;18.944;2022-10-16T02:37:34;102138.44;;;15.64;76.01
55550;BME280;41397;49.972;18.944;2022-10-16T02:40:35;102141.05;;;15.65;76.04
55550;BME280;41397;49.972;18.944;2022-10-16T02:43:37;102134.92;;;15.62;76.11
55550;BME280;41397;49.972;18.944;2022-10-16T02:46:38;102147.84;;;15.61;76.28
55550;BME280;41397;49.972;18.944;2022-10-16T02:49:39;102138.91;;;15.58;76.21
55550;BME280;41397;49.972;18.944;2022-10-16T02:52:40;102140.95;;;15.56;76.25
55550;BME280;41397;49.972;18.944;2022-10-16T02:55:42;102128.29;;;15.53;75.93
55550;BME280;41397;49.972;18.944;2022-10-16T02:58:43;102134.92;;;15.50;76.02
55550;BME280;41397;49.972;18.944;2022-10-16T03:01:47;102139.82;;;15.47;76.13
55550;BME280;41397;49.972;18.944;2022-10-16T03:04:48;102132.90;;;15.41;76.21
55550;BME280;41397;49.972;18.944;2022-10-16T03:07:49;102139.79;;;15.36;76.85
55550;BME280;41397;49.972;18.944;2022-10-16T03:10:51;102150.81;;;15.36;76.93
55550;BME280;41397;49.972;18.944;2022-10-16T03:13:54;102151.94;;;15.33;76.81
55550;BME280;41397;49.972;18.944;2022-10-16T03:16:56;102144.57;;;15.34;76.86
55550;BME280;41397;49.972;18.944;2022-10-16T03:19:57;102140.53;;;15.26;77.14
55550;BME280;41397;49.972;18.944;2022-10-16T03:22:58;102147.06;;;15.25;76.91
55550;BME280;41397;49.972;18.944;2022-10-16T03:26:02;102160.84;;;15.25;76.87
55550;BME280;41397;49.972;18.944;2022-10-16T03:29:04;102168.20;;;15.25;76.83
55550;BME280;41397;49.972;18.944;2022-10-16T03:32:05;102169.11;;;15.25;76.57
55550;BME280;41397;49.972;18.944;2022-10-16T03:35:07;102165.59;;;15.23;76.66
55550;BME280;41397;49.972;18.944;2022-10-16T03:38:10;102166.72;;;15.21;76.59
55550;BME280;41397;49.972;18.944;2022-10-16T03:41:11;102160.58;;;15.17;76.87
55550;BME280;41397;49.972;18.944;2022-10-16T03:44:13;102168.08;;;15.15;76.65
55550;BME280;41397;49.972;18.944;2022-10-16T03:47:14;102162.05;;;15.10;77.04
55550;BME280;41397;49.972;18.944;2022-10-16T03:50:18;102166.94;;;15.06;76.99
55550;BME280;41397;49.972;18.944;2022-10-16T03:53:19;102165.30;;;15.04;76.85
55550;BME280;41397;49.972;18.944;2022-10-16T03:56:21;102163.77;;;15.00;77.07
55550;BME280;41397;49.972;18.944;2022-10-16T03:59:22;102170.29;;;14.99;76.83
55550;BME280;41397;49.972;18.944;2022-10-16T04:02:26;102160.39;;;14.96;77.21
55550;BME280;41397;49.972;18.944;2022-10-16T04:05:27;102163.25;;;14.95;77.00
55550;BME280;41397;49.972;18.944;2022-10-16T04:08:29;102173.40;;;14.94;77.43
55550;BME280;41397;49.972;18.944;2022-10-16T04:11:30;102176.30;;;14.93;77.43
55550;BME280;41397;49.972;18.944;2022-10-16T04:14:34;102171.76;;;14.92;77.02
55550;BME280;41397;49.972;18.944;2022-10-16T04:17:36;102163.49;;;14.92;76.96
55550;BME280;41397;49.972;18.944;2022-10-16T04:20:37;102163.49;;;14.92;76.97
55550;BME280;41397;49.972;18.944;2022-10-16T04:23:39;102164.37;;;14.92;76.85
55550;BME280;41397;49.972;18.944;2022-10-16T04:26:42;102166.39;;;14.90;76.99
55550;BME280;41397;49.972;18.944;2022-10-16T04:29:43;102159.10;;;14.89;76.88
55550;BME280;41397;49.972;18.944;2022-10-16T04:32:51;102163.88;;;14.87;76.91
55550;BME280;41397;49.972;18.944;2022-10-16T04:36:01;102167.62;;;14.86;77.11
55550;BME280;41397;49.972;18.944;2022-10-16T04:39:03;102165.11;;;14.83;77.30
55550;BME280;41397;49.972;18.944;2022-10-16T04:42:09;102169.84;;;14.81;77.07
55550;BME280;41397;49.972;18.944;2022-10-16T04:45:10;102162.69;;;14.78;76.88
55550;BME280;41397;49.972;18.944;2022-10-16T04:48:12;102171.20;;;14.75;77.28
55550;BME280;41397;49.972;18.944;2022-10-16T04:51:13;102163.41;;;14.69;77.47
55550;BME280;41397;49.972;18.944;2022-10-16T04:54:17;102166.41;;;14.66;77.34
55550;BME280;41397;49.972;18.944;2022-10-16T04:57:18;102188.79;;;14.61;78.09
55550;BME280;41397;49.972;18.944;2022-10-16T05:00:19;102181.54;;;14.60;78.26
55550;BME280;41397;49.972;18.944;2022-10-16T05:03:20;102185.06;;;14.62;77.92
55550;BME280;41397;49.972;18.944;2022-10-16T05:06:25;102182.17;;;14.64;77.87
55550;BME280;41397;49.972;18.944;2022-10-16T05:09:26;102185.80;;;14.64;78.01
55550;BME280;41397;49.972;18.944;2022-10-16T05:12:27;102195.30;;;14.60;78.13
55550;BME280;41397;49.972;18.944;2022-10-16T05:15:28;102203.79;;;14.57;78.33
55550;BME280;41397;49.972;18.944;2022-10-16T05:18:33;102201.28;;;14.54;78.17
55550;BME280;41397;49.972;18.944;2022-10-16T05:21:34;102202.93;;;14.57;78.16
55550;BME280;41397;49.972;18.944;2022-10-16T05:24:35;102192.20;;;14.65;78.46
55550;BME280;41397;49.972;18.944;2022-10-16T05:27:36;102186.73;;;14.76;78.71
55550;BME280;41397;49.972;18.944;2022-10-16T05:30:41;102196.70;;;14.90;78.00
55550;BME280;41397;49.972;18.944;2022-10-16T05:33:42;102198.85;;;14.98;78.09
55550;BME280;41397;49.972;18.944;2022-10-16T05:36:44;102189.82;;;14.96;77.86
55550;BME280;41397;49.972;18.944;2022-10-16T05:39:46;102201.23;;;15.02;77.62
55550;BME280;41397;49.972;18.944;2022-10-16T05:42:49;102203.87;;;15.04;77.53
55550;BME280;41397;49.972;18.944;2022-10-16T05:45:56;102216.53;;;15.06;77.39
55550;BME280;41397;49.972;18.944;2022-10-16T05:48:58;102224.91;;;15.05;77.48
55550;BME280;41397;49.972;18.944;2022-10-16T05:51:59;102223.16;;;15.04;77.28
55550;BME280;41397;49.972;18.944;2022-10-16T05:55:00;102223.92;;;15.06;77.46
55550;BME280;41397;49.972;18.944;2022-10-16T05:58:01;102228.19;;;15.10;77.37
55550;BME280;41397;49.972;18.944;2022-10-16T06:01:12;102225.18;;;15.13;77.31
55550;BME280;41397;49.972;18.944;2022-10-16T06:04:16;102219.43;;;15.16;77.27
55550;BME280;41397;49.972;18.944;2022-10-16T06:07:19;102225.46;;;15.21;78.55
55550;BME280;41397;49.972;18.944;2022-10-16T06:10:23;102239.55;;;15.52;78.61
55550;BME280;41397;49.972;18.944;2022-10-16T06:13:24;102238.02;;;15.94;78.69
55550;BME280;41397;49.972;18.944;2022-10-16T06:16:26;102235.85;;;16.43;77.83
55550;BME280;41397;49.972;18.944;2022-10-16T06:19:27;102253.03;;;17.01;76.05
55550;BME280;41397;49.972;18.944;2022-10-16T06:22:31;102254.37;;;17.60;74.48
55550;BME280;41397;49.972;18.944;2022-10-16T06:25:32;102253.65;;;18.19;72.42
55550;BME280;41397;49.972;18.944;2022-10-16T06:28:34;102255.03;;;18.75;70.16
55550;BME280;41397;49.972;18.944;2022-10-16T06:31:35;102256.07;;;19.33;68.59
55550;BME280;41397;49.972;18.944;2022-10-16T06:34:39;102268.56;;;19.85;67.25
55550;BME280;41397;49.972;18.944;2022-10-16T06:37:41;102265.75;;;20.32;65.75
55550;BME280;41397;49.972;18.944;2022-10-16T06:40:43;102271.83;;;20.73;64.40
55550;BME280;41397;49.972;18.944;2022-10-16T06:43:44;102276.63;;;21.17;63.30
55550;BME280;41397;49.972;18.944;2022-10-16T06:46:47;102286.22;;;21.50;62.09
55550;BME280;41397;49.972;18.944;2022-10-16T06:49:48;102280.63;;;21.94;61.31
55550;BME280;41397;49.972;18.944;2022-10-16T06:52:49;102291.34;;;22.33;60.09
55550;BME280;41397;49.972;18.944;2022-10-16T06:55:50;102281.70;;;22.70;58.41
55550;BME280;41397;49.972;18.944;2022-10-16T06:58:55;102294.70;;;22.95;57.18
55550;BME280;41397;49.972;18.944;2022-10-16T07:01:56;102291.48;;;23.16;57.08
55550;BME280;41397;49.972;18.944;2022-10-16T07:04:58;102285.91;;;23.33;54.28
55550;BME280;41397;49.972;18.944;2022-10-16T07:07:59;102281.36;;;23.48;53.54
55550;BME280;41397;49.972;18.944;2022-10-16T07:11:05;102289.73;;;23.64;53.08
55550;BME280;41397;49.972;18.944;2022-10-16T07:14:14;102284.52;;;23.78;53.50
55550;BME280;41397;49.972;18.944;2022-10-16T07:17:16;102283.63;;;23.93;52.67
55550;BME280;41397;49.972;18.944;2022-10-16T07:20:17;102292.84;;;24.10;52.01
55550;BME280;41397;49.972;18.944;2022-10-16T07:23:18;102295.32;;;23.97;51.01
55550;BME280;41397;49.972;18.944;2022-10-16T07:26:20;102304.42;;;23.83;52.08
55550;BME280;41397;49.972;18.944;2022-10-16T07:29:22;102307.71;;;23.70;51.38
55550;BME280;41397;49.972;18.944;2022-10-16T07:32:23;102309.29;;;23.56;51.63
55550;BME280;41397;49.972;18.944;2022-10-16T07:35:26;102302.11;;;23.29;52.17
55550;BME280;41397;49.972;18.944;2022-10-16T07:38:27;102299.86;;;23.24;52.79
55550;BME280;41397;49.972;18.944;2022-10-16T07:41:28;102305.23;;;23.10;52.95
55550;BME280;41397;49.972;18.944;2022-10-16T07:44:30;102299.26;;;22.96;53.31
55550;BME280;41397;49.972;18.944;2022-10-16T07:47:31;102309.99;;;22.83;53.90
55550;BME280;41397;49.972;18.944;2022-10-16T07:50:32;102315.36;;;22.68;54.48
55550;BME280;41397;49.972;18.944;2022-10-16T07:53:34;102306.99;;;22.68;54.47
55550;BME280;41397;49.972;18.944;2022-10-16T07:56:35;102323.70;;;22.60;55.45
55550;BME280;41397;49.972;18.944;2022-10-16T07:59:36;102317.09;;;22.69;54.43
55550;BME280;41397;49.972;18.944;2022-10-16T08:02:37;102320.94;;;22.68;54.64
55550;BME280;41397;49.972;18.944;2022-10-16T08:05:38;102326.89;;;22.73;53.88
55550;BME280;41397;49.972;18.944;2022-10-16T08:08:40;102327.23;;;22.70;54.49
55550;BME280;41397;49.972;18.944;2022-10-16T08:11:42;102336.95;;;22.66;54.04
55550;BME280;41397;49.972;18.944;2022-10-16T08:14:44;102337.63;;;22.60;54.28
55550;BME280;41397;49.972;18.944;2022-10-16T08:20:58;102332.19;;;22.93;53.59
55550;BME280;41397;49.972;18.944;2022-10-16T08:24:01;102334.60;;;22.88;53.83
55550;BME280;41397;49.972;18.944;2022-10-16T08:27:02;102321.52;;;22.88;53.58
55550;BME280;41397;49.972;18.944;2022-10-16T08:30:04;102322.23;;;22.90;52.71
55550;BME280;41397;49.972;18.944;2022-10-16T08:33:05;102332.89;;;22.95;53.00
55550;BME280;41397;49.972;18.944;2022-10-16T08:36:07;102323.60;;;22.86;52.92
55550;BME280;41397;49.972;18.944;2022-10-16T08:39:09;102339.49;;;22.94;53.06
55550;BME280;41397;49.972;18.944;2022-10-16T08:42:21;102331.53;;;22.99;53.34
55550;BME280;41397;49.972;18.944;2022-10-16T08:48:52;102335.80;;;23.28;53.03
55550;BME280;41397;49.972;18.944;2022-10-16T08:51:49;102330.04;;;23.37;50.88
55550;BME280;41397;49.972;18.944;2022-10-16T08:54:53;102329.01;;;23.38;50.67
55550;BME280;41397;49.972;18.944;2022-10-16T08:57:56;102333.20;;;23.51;51.08
55550;BME280;41397;49.972;18.944;2022-10-16T09:01:00;102328.30;;;23.53;50.56
55550;BME280;41397;49.972;18.944;2022-10-16T09:07:27;102330.44;;;23.75;49.90
55550;BME280;41397;49.972;18.944;2022-10-16T09:10:38;102327.49;;;23.77;50.86
55550;BME280;41397;49.972;18.944;2022-10-16T09:13:49;102326.07;;;23.89;50.14
55550;BME280;41397;49.972;18.944;2022-10-16T09:16:57;102345.63;;;23.89;50.12
55550;BME280;41397;49.972;18.944;2022-10-16T09:23:29;102357.31;;;23.92;49.57
55550;BME280;41397;49.972;18.944;2022-10-16T09:26:31;102351.21;;;23.89;50.19
55550;BME280;41397;49.972;18.944;2022-10-16T09:29:32;102343.02;;;23.87;50.30
55550;BME280;41397;49.972;18.944;2022-10-16T09:32:33;102352.63;;;23.93;50.39
55550;BME280;41397;49.972;18.944;2022-10-16T09:35:42;102362.73;;;24.10;50.16
55550;BME280;41397;49.972;18.944;2022-10-16T09:38:44;102357.48;;;24.15;50.05
55550;BME280;41397;49.972;18.944;2022-10-16T09:41:45;102362.38;;;24.05;49.15
55550;BME280;41397;49.972;18.944;2022-10-16T09:44:49;102367.61;;;24.00;49.72
55550;BME280;41397;49.972;18.944;2022-10-16T09:47:51;102367.09;;;24.05;50.33
55550;BME280;41397;49.972;18.944;2022-10-16T09:50:57;102375.14;;;23.91;49.99
55550;BME280;41397;49.972;18.944;2022-10-16T09:54:13;102376.55;;;24.04;49.77
55550;BME280;41397;49.972;18.944;2022-10-16T09:57:12;102368.47;;;24.17;49.10
55550;BME280;41397;49.972;18.944;2022-10-16T10:00:16;102378.61;;;24.18;48.70
55550;BME280;41397;49.972;18.944;2022-10-16T10:06:43;102373.70;;;24.36;48.92
55550;BME280;41397;49.972;18.944;2022-10-16T10:09:46;102374.23;;;24.24;49.54
55550;BME280;41397;49.972;18.944;2022-10-16T10:12:47;102372.80;;;24.36;49.85
55550;BME280;41397;49.972;18.944;2022-10-16T10:15:49;102378.41;;;24.28;50.09
55550;BME280;41397;49.972;18.944;2022-10-16T10:18:59;102378.59;;;24.34;48.89
55550;BME280;41397;49.972;18.944;2022-10-16T10:22:00;102388.74;;;24.11;49.57
55550;BME280;41397;49.972;18.944;2022-10-16T10:47:55;102395.91;;;23.97;50.61
55550;BME280;41397;49.972;18.944;2022-10-16T10:51:07;102391.75;;;23.93;49.93
55550;BME280;41397;49.972;18.944;2022-10-16T10:57:34;102393.98;;;23.81;51.52
55550;BME280;41397;49.972;18.944;2022-10-16T11:04:01;102385.92;;;23.70;50.61
55550;BME280;41397;49.972;18.944;2022-10-16T11:07:09;102382.62;;;23.66;50.78
55550;BME280;41397;49.972;18.944;2022-10-16T11:13:35;102385.75;;;23.55;51.05
55550;BME280;41397;49.972;18.944;2022-10-16T11:16:48;102389.04;;;23.51;51.77
55550;BME280;41397;49.972;18.944;2022-10-16T11:19:58;102385.75;;;23.55;50.79
55550;BME280;41397;49.972;18.944;2022-10-16T11:23:09;102386.59;;;23.39;51.24
55550;BME280;41397;49.972;18.944;2022-10-16T11:26:25;102383.63;;;23.41;51.28
55550;BME280;41397;49.972;18.944;2022-10-16T11:29:30;102381.50;;;23.35;51.86
55550;BME280;41397;49.972;18.944;2022-10-16T11:39:02;102379.06;;;23.32;52.55
55550;BME280;41397;49.972;18.944;2022-10-16T11:45:26;102373.67;;;23.38;52.01
55550;BME280;41397;49.972;18.944;2022-10-16T11:48:36;102375.92;;;23.35;52.57
55550;BME280;41397;49.972;18.944;2022-10-16T11:51:45;102375.41;;;23.31;52.50
55550;BME280;41397;49.972;18.944;2022-10-16T11:54:55;102378.02;;;23.24;51.83
55550;BME280;41397;49.972;18.944;2022-10-16T11:58:04;102379.02;;;23.15;52.42
55550;BME280;41397;49.972;18.944;2022-10-16T12:08:15;102369.23;;;23.03;53.59
55550;BME280;41397;49.972;18.944;2022-10-16T12:11:19;102364.61;;;22.94;52.69
55550;BME280;41397;49.972;18.944;2022-10-16T12:14:20;102374.68;;;22.78;53.15
55550;BME280;41397;49.972;18.944;2022-10-16T12:17:26;102365.26;;;22.79;53.20
55550;BME280;41397;49.972;18.944;2022-10-16T12:20:30;102377.47;;;22.78;53.64
55550;BME280;41397;49.972;18.944;2022-10-16T12:23:46;102383.20;;;22.77;53.22
55550;BME280;41397;49.972;18.944;2022-10-16T12:26:46;102391.95;;;22.82;53.34
55550;BME280;41397;49.972;18.944;2022-10-16T12:29:56;102375.58;;;22.87;53.96
55550;BME280;41397;49.972;18.944;2022-10-16T12:33:02;102390.59;;;22.94;53.54
55550;BME280;41397;49.972;18.944;2022-10-16T12:36:26;102393.26;;;22.96;54.11
55550;BME280;41397;49.972;18.944;2022-10-16T12:39:23;102399.14;;;22.93;54.61
55550;BME280;41397;49.972;18.944;2022-10-16T12:42:33;102401.13;;;23.00;54.31
55550;BME280;41397;49.972;18.944;2022-10-16T12:45:34;102406.53;;;23.02;54.52
55550;BME280;41397;49.972;18.944;2022-10-16T12:48:41;102402.71;;;23.03;54.69
55550;BME280;41397;49.972;18.944;2022-10-16T12:51:45;102392.10;;;23.15;54.08
55550;BME280;41397;49.972;18.944;2022-10-16T12:54:47;102408.69;;;23.16;53.45
55550;BME280;41397;49.972;18.944;2022-10-16T12:58:00;102410.18;;;23.02;54.04
55550;BME280;41397;49.972;18.944;2022-10-16T13:17:40;102423.45;;;23.00;53.94
55550;BME280;41397;49.972;18.944;2022-10-16T13:20:56;102423.61;;;22.99;53.97
55550;BME280;41397;49.972;18.944;2022-10-16T13:30:26;102434.35;;;22.94;54.84
55550;BME280;41397;49.972;18.944;2022-10-16T13:33:32;102433.34;;;22.95;54.56
55550;BME280;41397;49.972;18.944;2022-10-16T13:36:42;102431.97;;;22.99;54.76
55550;BME280;41397;49.972;18.944;2022-10-16T13:39:41;102435.63;;;22.99;54.49
55550;BME280;41397;49.972;18.944;2022-10-16T13:42:42;102432.31;;;22.96;54.63
55550;BME280;41397;49.972;18.944;2022-10-16T13:48:58;102432.44;;;22.94;54.16
55550;BME280;41397;49.972;18.944;2022-10-16T13:52:00;102432.95;;;22.90;54.44
55550;BME280;41397;49.972;18.944;2022-10-16T13:55:09;102431.82;;;23.00;55.07
55550;BME280;41397;49.972;18.944;2022-10-16T13:58:13;102428.84;;;23.02;55.32
55550;BME280;41397;49.972;18.944;2022-10-16T14:01:27;102413.69;;;23.04;54.50
55550;BME280;41397;49.972;18.944;2022-10-16T14:04:33;102413.19;;;23.09;54.38
55550;BME280;41397;49.972;18.944;2022-10-16T14:07:34;102406.19;;;23.05;54.28
55550;BME280;41397;49.972;18.944;2022-10-16T14:10:42;102409.31;;;23.02;54.33
55550;BME280;41397;49.972;18.944;2022-10-16T14:13:44;102422.02;;;22.96;54.69
55550;BME280;41397;49.972;18.944;2022-10-16T14:16:46;102426.39;;;22.99;54.53
55550;BME280;41397;49.972;18.944;2022-10-16T14:19:50;102428.36;;;22.80;54.51
55550;BME280;41397;49.972;18.944;2022-10-16T14:22:59;102433.63;;;22.83;54.86
55550;BME280;41397;49.972;18.944;2022-10-16T14:29:20;102444.46;;;22.87;55.12
55550;BME280;41397;49.972;18.944;2022-10-16T14:32:23;102455.01;;;22.75;55.51
55550;BME280;41397;49.972;18.944;2022-10-16T14:35:30;102443.70;;;22.76;55.35
55550;BME280;41397;49.972;18.944;2022-10-16T14:38:32;102455.01;;;22.75;55.53
55550;BME280;41397;49.972;18.944;2022-10-16T14:41:43;102456.55;;;22.69;55.42
55550;BME280;41397;49.972;18.944;2022-10-16T14:44:47;102463.56;;;22.73;55.43
55550;BME280;41397;49.972;18.944;2022-10-16T14:47:55;102465.28;;;22.74;55.44
55550;BME280;41397;49.972;18.944;2022-10-16T14:50:57;102457.80;;;22.75;55.55
55550;BME280;41397;49.972;18.944;2022-10-16T14:54:00;102462.44;;;22.66;55.81
55550;BME280;41397;49.972;18.944;2022-10-16T14:57:02;102460.00;;;22.63;55.80
55550;BME280;41397;49.972;18.944;2022-10-16T15:03:16;102465.78;;;22.44;56.14
55550;BME280;41397;49.972;18.944;2022-10-16T15:06:17;102467.86;;;22.42;56.11
55550;BME280;41397;49.972;18.944;2022-10-16T15:09:18;102466.05;;;22.32;56.22
55550;BME280;41397;49.972;18.944;2022-10-16T15:12:20;102472.64;;;22.31;56.34
55550;BME280;41397;49.972;18.944;2022-10-16T15:15:28;102471.39;;;22.26;56.62
55550;BME280;41397;49.972;18.944;2022-10-16T15:18:31;102465.02;;;22.15;56.91
55550;BME280;41397;49.972;18.944;2022-10-16T15:21:34;102461.98;;;22.09;57.23
55550;BME280;41397;49.972;18.944;2022-10-16T15:24:35;102461.45;;;22.05;57.16
55550;BME280;41397;49.972;18.944;2022-10-16T15:27:36;102451.95;;;21.98;57.54
55550;BME280;41397;49.972;18.944;2022-10-16T15:30:41;102457.64;;;21.88;57.67
55550;BME280;41397;49.972;18.944;2022-10-16T15:33:43;102458.57;;;21.79;58.09
55550;BME280;41397;49.972;18.944;2022-10-16T15:36:44;102464.47;;;21.76;58.21
55550;BME280;41397;49.972;18.944;2022-10-16T15:39:45;102463.66;;;21.66;58.35
55550;BME280;41397;49.972;18.944;2022-10-16T15:42:47;102469.45;;;21.55;58.61
55550;BME280;41397;49.972;18.944;2022-10-16T15:46:00;102477.39;;;21.49;58.75
55550;BME280;41397;49.972;18.944;2022-10-16T15:49:02;102483.45;;;21.45;58.89
55550;BME280;41397;49.972;18.944;2022-10-16T15:52:03;102483.18;;;21.38;59.02
55550;BME280;41397;49.972;18.944;2022-10-16T15:55:09;102487.29;;;21.34;59.04
55550;BME280;41397;49.972;18.944;2022-10-16T15:58:11;102496.09;;;21.29;59.45
55550;BME280;41397;49.972;18.944;2022-10-16T16:01:17;102496.41;;;21.26;59.51
55550;BME280;41397;49.972;18.944;2022-10-16T16:04:19;102497.73;;;21.22;59.76
55550;BME280;41397;49.972;18.944;2022-10-16T16:07:20;102500.99;;;21.18;59.62
55550;BME280;41397;49.972;18.944;2022-10-16T16:10:21;102510.66;;;21.14;59.66
55550;BME280;41397;49.972;18.944;2022-10-16T16:13:25;102506.27;;;21.11;59.70
55550;BME280;41397;49.972;18.944;2022-10-16T16:16:26;102512.02;;;21.10;59.93
55550;BME280;41397;49.972;18.944;2022-10-16T16:19:28;102511.41;;;21.06;60.08
55550;BME280;41397;49.972;18.944;2022-10-16T16:22:29;102518.34;;;21.02;60.38
55550;BME280;41397;49.972;18.944;2022-10-16T16:25:33;102518.77;;;20.97;60.32
55550;BME280;41397;49.972;18.944;2022-10-16T16:28:35;102525.38;;;20.96;60.36
55550;BME280;41397;49.972;18.944;2022-10-16T16:31:36;102520.42;;;20.90;60.53
55550;BME280;41397;49.972;18.944;2022-10-16T16:34:37;102525.56;;;20.85;60.78
55550;BME280;41397;49.972;18.944;2022-10-16T16:37:44;102531.88;;;20.77;60.84
55550;BME280;41397;49.972;18.944;2022-10-16T16:40:45;102532.01;;;20.76;60.81
55550;BME280;41397;49.972;18.944;2022-10-16T16:43:47;102542.73;;;20.71;61.48
55550;BME280;41397;49.972;18.944;2022-10-16T16:46:48;102549.16;;;20.61;61.92
55550;BME280;41397;49.972;18.944;2022-10-16T16:49:49;102557.81;;;20.58;62.29
55550;BME280;41397;49.972;18.944;2022-10-16T16:52:52;102560.59;;;20.58;62.41
55550;BME280;41397;49.972;18.944;2022-10-16T16:55:53;102556.77;;;20.50;62.35
55550;BME280;41397;49.972;18.944;2022-10-16T16:58:55;102555.75;;;20.41;62.76
55550;BME280;41397;49.972;18.944;2022-10-16T17:01:57;102574.16;;;20.32;62.66
55550;BME280;41397;49.972;18.944;2022-10-16T17:04:58;102577.98;;;20.31;62.87
55550;BME280;41397;49.972;18.944;2022-10-16T17:07:59;102578.39;;;20.27;63.44
55550;BME280;41397;49.972;18.944;2022-10-16T17:11:01;102591.27;;;20.18;63.92
55550;BME280;41397;49.972;18.944;2022-10-16T17:14:05;102604.71;;;20.13;64.08
55550;BME280;41397;49.972;18.944;2022-10-16T17:17:06;102606.77;;;20.11;63.95
55550;BME280;41397;49.972;18.944;2022-10-16T17:20:08;102620.05;;;20.07;64.43
55550;BME280;41397;49.972;18.944;2022-10-16T17:23:11;102620.35;;;20.04;64.01
55550;BME280;41397;49.972;18.944;2022-10-16T17:26:17;102630.01;;;20.00;64.26
55550;BME280;41397;49.972;18.944;2022-10-16T17:29:21;102633.94;;;19.98;64.78
55550;BME280;41397;49.972;18.944;2022-10-16T17:32:22;102634.47;;;19.91;64.72
55550;BME280;41397;49.972;18.944;2022-10-16T17:35:23;102638.58;;;19.87;64.48
55550;BME280;41397;49.972;18.944;2022-10-16T17:38:24;102638.13;;;19.82;64.89
55550;BME280;41397;49.972;18.944;2022-10-16T17:41:26;102645.98;;;19.77;65.19